This is the latest recevied weather packets stored in our database for station/object K0SNA. If no packets are shown the sender has not sent any weather packets the latest 1 day(s).
| Time | Temp. | Humidity | Pressure | Rain* | Wind** | Luminosity | Snow |
|---|---|---|---|---|---|---|---|
| 1777979726 | 3.33° C | 64% | 1009.1 hPa | 0 mm | 1.34 m/s, 299° | 8 W/m² | - |
| 1777979423 | 3.33° C | 65% | 1008.9 hPa | 0 mm | 1.34 m/s, 295° | 6 W/m² | - |
| 1777979119 | 3.33° C | 65% | 1008.9 hPa | 0 mm | 0.89 m/s, 255° | 4 W/m² | - |
| 1777978816 | 3.33° C | 65% | 1008.9 hPa | 0 mm | 0.89 m/s, 31° | 3 W/m² | - |
| 1777978513 | 3.33° C | 66% | 1008.8 hPa | 0 mm | 0.89 m/s, 258° | 2 W/m² | - |
| 1777978209 | 3.89° C | 65% | 1008.9 hPa | 0 mm | 0.45 m/s, 78° | 1 W/m² | - |
| 1777977906 | 3.89° C | 65% | 1008.7 hPa | 0 mm | 1.34 m/s, 303° | 0 W/m² | - |
| 1777977603 | 3.89° C | 65% | 1008.9 hPa | 0 mm | 0.45 m/s, 216° | 0 W/m² | - |
| 1777977300 | 3.89° C | 64% | 1008.8 hPa | 0 mm | 0.89 m/s, 336° | 0 W/m² | - |
| 1777976997 | 3.89° C | 65% | 1008.6 hPa | 0 mm | 1.34 m/s, 341° | 0 W/m² | - |
| 1777976694 | 3.89° C | 64% | 1008.6 hPa | 0 mm | 0 m/s | 0 W/m² | - |
| 1777976391 | 3.89° C | 64% | 1008.6 hPa | 0 mm | 1.79 m/s, 335° | 0 W/m² | - |
| 1777976084 | 3.89° C | 64% | 1008.7 hPa | 0 mm | 0.45 m/s, 202° | 0 W/m² | - |
| 1777975780 | 3.89° C | 64% | 1008.6 hPa | 0 mm | 0.45 m/s, 204° | 0 W/m² | - |
| 1777975478 | 3.89° C | 64% | 1008.6 hPa | 0 mm | 0.45 m/s, 219° | 0 W/m² | - |
| 1777975173 | 3.89° C | 63% | 1008.7 hPa | 0 mm | 0 m/s | 0 W/m² | - |
| 1777974870 | 3.89° C | 63% | 1008.5 hPa | 0 mm | 1.34 m/s, 293° | 0 W/m² | - |
| 1777974566 | 4.44° C | 63% | 1008.6 hPa | 0 mm | 0.45 m/s, 206° | 0 W/m² | - |
| 1777974264 | 4.44° C | 62% | 1008.6 hPa | 0 mm | 1.34 m/s, 313° | 0 W/m² | - |
| 1777973959 | 4.44° C | 62% | 1008.4 hPa | 0 mm | 0.45 m/s, 169° | 0 W/m² | - |
| 1777973657 | 4.44° C | 61% | 1008.6 hPa | 0 mm | 1.34 m/s, 322° | 0 W/m² | - |
| 1777973354 | 4.44° C | 61% | 1008.2 hPa | 0 mm | 0.89 m/s, 279° | 0 W/m² | - |
| 1777973052 | 4.44° C | 61% | 1008.4 hPa | 0 mm | 1.34 m/s, 324° | 0 W/m² | - |
| 1777972749 | 4.44° C | 61% | 1008.2 hPa | 0 mm | 1.34 m/s, 302° | 0 W/m² | - |
| 1777972447 | 4.44° C | 61% | 1008.1 hPa | 0 mm | 1.79 m/s, 1° | 0 W/m² | - |
* Rain latest hour (hover to see other rain measurements)
** Current wind speed in m/s (hover to see current wind gust speed)